Wetterdaten: Woche 10.08.15 - 16.08.15 (KW33)
Datum Zeit Temp. A. Feuchte A. Luftdruck Regen Wind Richtung Sonnenschein ET UV Solar Taupunkt Windchill Windben Empfang
10.08.2015 00:00 22,8 C 55 % 1013,7 hPa 0,0 l/m 1,0 km/h (0 Bft) O 0,00 h 0,000 mm 0,0 UV-I 0 W/m 13,4 C 22,8 C 3,3 km/h (1 Bft) 0,00 %
10.08.2015 01:00 21,5 C 58 % 1013,6 hPa 0,0 l/m 0,0 km/h (0 Bft) N 0,00 h 0,000 mm 0,0 UV-I 0 W/m 12,9 C 21,5 C 0,0 km/h (0 Bft) 0,00 %
10.08.2015 02:00 20,6 C 59 % 1013,5 hPa 0,0 l/m 0,1 km/h (0 Bft) O-SO 0,00 h 0,000 mm 0,0 UV-I 0 W/m 12,3 C 20,6 C 0,3 km/h (0 Bft) 0,00 %
10.08.2015 03:00 19,6 C 62 % 1013,4 hPa 0,0 l/m 0,0 km/h (0 Bft) N 0,00 h 0,000 mm 0,0 UV-I 0 W/m 12,0 C 19,6 C 0,0 km/h (0 Bft) 0,00 %
10.08.2015 04:00 18,1 C 70 % 1013,6 hPa 0,0 l/m 0,0 km/h (0 Bft) N 0,00 h 0,000 mm 0,0 UV-I 0 W/m 12,6 C 18,1 C 0,0 km/h (0 Bft) 0,00 %
10.08.2015 05:00 17,7 C 80 % 1013,9 hPa 0,0 l/m 0,0 km/h (0 Bft) N 0,00 h 0,000 mm 0,0 UV-I 4 W/m 14,2 C 17,7 C 0,0 km/h (0 Bft) 0,00 %
10.08.2015 06:00 18,8 C 78 % 1014,4 hPa 0,0 l/m 0,0 km/h (0 Bft) N 0,92 h 0,000 mm 0,0 UV-I 83 W/m 14,8 C 18,8 C 0,0 km/h (0 Bft) 0,00 %
10.08.2015 07:00 23,3 C 59 % 1014,7 hPa 0,0 l/m 0,0 km/h (0 Bft) N 1,00 h 0,000 mm 1,0 UV-I 211 W/m 14,7 C 23,3 C 0,0 km/h (0 Bft) 0,00 %
10.08.2015 08:00 27,6 C 49 % 1014,9 hPa 0,0 l/m 0,0 km/h (0 Bft) N 1,00 h 0,000 mm 1,0 UV-I 306 W/m 15,7 C 27,6 C 0,3 km/h (0 Bft) 0,00 %
10.08.2015 09:00 29,3 C 45 % 1014,8 hPa 0,0 l/m 0,2 km/h (0 Bft) O-NO 1,00 h 0,000 mm 1,8 UV-I 423 W/m 16,1 C 29,3 C 1,0 km/h (0 Bft) 0,00 %
10.08.2015 10:00 30,3 C 42 % 1014,6 hPa 0,0 l/m 0,2 km/h (0 Bft) NO 1,00 h 0,000 mm 2,3 UV-I 574 W/m 15,9 C 30,3 C 1,0 km/h (0 Bft) 0,00 %
10.08.2015 11:00 30,9 C 39 % 1014,1 hPa 0,0 l/m 1,7 km/h (1 Bft) O 1,00 h 0,000 mm 3,4 UV-I 724 W/m 15,1 C 30,9 C 4,0 km/h (1 Bft) 0,00 %
10.08.2015 12:00 31,4 C 30 % 1013,5 hPa 0,0 l/m 2,3 km/h (1 Bft) N-NO 1,00 h 0,000 mm 4,2 UV-I 813 W/m 11,8 C 31,4 C 4,6 km/h (1 Bft) 0,00 %
10.08.2015 13:00 32,0 C 25 % 1013,0 hPa 0,0 l/m 2,4 km/h (1 Bft) O-SO 1,02 h 0,000 mm 4,0 UV-I 861 W/m 9,2 C 32,0 C 4,6 km/h (1 Bft) 0,00 %
10.08.2015 14:00 32,8 C 20 % 1012,4 hPa 0,0 l/m 2,3 km/h (1 Bft) O 1,00 h 0,000 mm 3,7 UV-I 905 W/m 6,9 C 32,8 C 4,6 km/h (1 Bft) 0,00 %
10.08.2015 15:00 33,1 C 16 % 1011,8 hPa 0,0 l/m 3,3 km/h (1 Bft) SO 1,00 h 0,000 mm 3,0 UV-I 904 W/m 3,6 C 33,1 C 5,3 km/h (1 Bft) 0,00 %
10.08.2015 16:00 32,9 C 16 % 1011,5 hPa 0,0 l/m 4,5 km/h (1 Bft) SO 1,00 h 0,000 mm 1,1 UV-I 849 W/m 3,6 C 32,9 C 7,9 km/h (2 Bft) 0,00 %
10.08.2015 17:00 32,4 C 21 % 1011,3 hPa 0,0 l/m 4,7 km/h (1 Bft) O-NO 1,00 h 0,000 mm 1,0 UV-I 737 W/m 7,3 C 32,4 C 8,6 km/h (2 Bft) 0,00 %
10.08.2015 18:00 31,8 C 19 % 1011,0 hPa 0,0 l/m 6,1 km/h (2 Bft) O-SO 1,00 h 0,000 mm 1,0 UV-I 568 W/m 5,6 C 31,7 C 8,9 km/h (2 Bft) 0,00 %
10.08.2015 19:00 30,6 C 22 % 1011,0 hPa 0,0 l/m 1,6 km/h (1 Bft) O-NO 1,00 h 0,000 mm 1,0 UV-I 237 W/m 6,5 C 30,6 C 3,3 km/h (1 Bft) 0,00 %
10.08.2015 20:00 27,5 C 30 % 1011,2 hPa 0,0 l/m 0,1 km/h (0 Bft) N 0,25 h 0,000 mm 0,0 UV-I 16 W/m 8,3 C 27,5 C 1,0 km/h (0 Bft) 0,00 %
10.08.2015 21:00 25,4 C 32 % 1011,8 hPa 0,0 l/m 1,3 km/h (1 Bft) SO 0,00 h 0,000 mm 0,0 UV-I 0 W/m 7,7 C 25,4 C 2,9 km/h (1 Bft) 0,00 %
10.08.2015 22:00 24,7 C 34 % 1011,9 hPa 0,0 l/m 2,3 km/h (1 Bft) O-SO 0,00 h 0,000 mm 0,0 UV-I 0 W/m 7,6 C 24,7 C 4,0 km/h (1 Bft) 0,00 %
10.08.2015 23:00 23,6 C 38 % 1012,3 hPa 0,0 l/m 0,8 km/h (0 Bft) O 0,00 h 0,000 mm 0,0 UV-I 0 W/m 8,5 C 23,6 C 2,0 km/h (1 Bft) 0,00 %
11.08.2015 00:00 22,4 C 43 % 1012,6 hPa 0,0 l/m 0,8 km/h (0 Bft) O-SO 0,00 h 0,000 mm 0,0 UV-I 0 W/m 9,0 C 22,4 C 1,7 km/h (1 Bft) 0,00 %
11.08.2015 01:00 22,4 C 43 % 1012,5 hPa 0,0 l/m 1,8 km/h (1 Bft) O 0,00 h 0,000 mm 0,0 UV-I 0 W/m 9,1 C 22,4 C 3,3 km/h (1 Bft) 0,00 %
11.08.2015 02:00 21,5 C 45 % 1012,5 hPa 0,0 l/m 1,2 km/h (1 Bft) O 0,00 h 0,000 mm 0,0 UV-I 0 W/m 9,0 C 21,5 C 2,6 km/h (1 Bft) 0,00 %
11.08.2015 03:00 18,6 C 58 % 1012,7 hPa 0,0 l/m 0,0 km/h (0 Bft) N 0,00 h 0,000 mm 0,0 UV-I 0 W/m 10,2 C 18,6 C 0,0 km/h (0 Bft) 0,00 %
11.08.2015 04:00 15,8 C 70 % 1012,9 hPa 0,0 l/m 0,0 km/h (0 Bft) N 0,00 h 0,000 mm 0,0 UV-I 0 W/m 10,2 C 15,8 C 0,0 km/h (0 Bft) 0,00 %
11.08.2015 05:00 15,4 C 71 % 1013,7 hPa 0,0 l/m 0,0 km/h (0 Bft) N 0,00 h 0,000 mm 0,0 UV-I 0 W/m 10,2 C 15,4 C 0,0 km/h (0 Bft) 0,00 %
11.08.2015 06:00 15,5 C 72 % 1014,1 hPa 0,0 l/m 0,0 km/h (0 Bft) N 0,00 h 0,000 mm 0,0 UV-I 40 W/m 10,3 C 15,5 C 0,0 km/h (0 Bft) 0,00 %
11.08.2015 07:00 19,5 C 60 % 1014,4 hPa 0,0 l/m 0,0 km/h (0 Bft) N 1,00 h 0,000 mm 1,0 UV-I 192 W/m 11,4 C 19,5 C 0,0 km/h (0 Bft) 0,00 %
11.08.2015 08:00 24,7 C 45 % 1014,9 hPa 0,0 l/m 0,0 km/h (0 Bft) N 0,92 h 0,000 mm 1,0 UV-I 259 W/m 11,8 C 24,7 C 0,0 km/h (0 Bft) 0,00 %
11.08.2015 09:00 27,2 C 47 % 1015,1 hPa 0,0 l/m 0,0 km/h (0 Bft) N 1,00 h 0,000 mm 1,6 UV-I 404 W/m 14,9 C 27,2 C 0,3 km/h (0 Bft) 0,00 %
11.08.2015 10:00 29,2 C 44 % 1015,3 hPa 0,0 l/m 0,0 km/h (0 Bft) N 1,00 h 0,000 mm 2,4 UV-I 570 W/m 15,5 C 29,2 C 0,0 km/h (0 Bft) 0,00 %
11.08.2015 11:00 30,6 C 41 % 1015,3 hPa 0,0 l/m 0,1 km/h (0 Bft) N 1,00 h 0,000 mm 3,0 UV-I 730 W/m 15,7 C 30,6 C 0,7 km/h (0 Bft) 0,00 %
11.08.2015 12:00 30,9 C 39 % 1015,0 hPa 0,0 l/m 1,4 km/h (1 Bft) W-SW 1,00 h 0,000 mm 3,5 UV-I 720 W/m 15,1 C 30,9 C 2,6 km/h (1 Bft) 0,00 %
11.08.2015 13:00 31,7 C 36 % 1014,5 hPa 0,0 l/m 0,8 km/h (0 Bft) SO 1,00 h 0,000 mm 3,7 UV-I 855 W/m 14,9 C 31,7 C 2,7 km/h (1 Bft) 0,00 %
11.08.2015 14:00 32,4 C 28 % 1014,1 hPa 0,0 l/m 1,8 km/h (1 Bft) O-NO 1,00 h 0,000 mm 3,0 UV-I 866 W/m 11,4 C 32,4 C 3,3 km/h (1 Bft) 0,00 %
11.08.2015 15:00 33,7 C 24 % 1013,8 hPa 0,0 l/m 2,5 km/h (1 Bft) O 1,00 h 0,000 mm 2,5 UV-I 858 W/m 10,2 C 33,7 C 4,3 km/h (1 Bft) 0,00 %
11.08.2015 16:00 33,4 C 24 % 1013,5 hPa 0,0 l/m 1,2 km/h (1 Bft) O-NO 1,00 h 0,000 mm 1,4 UV-I 764 W/m 9,7 C 33,4 C 3,0 km/h (1 Bft) 0,00 %
11.08.2015 17:00 33,4 C 23 % 1013,5 hPa 0,0 l/m 0,1 km/h (0 Bft) N 1,00 h 0,000 mm 1,0 UV-I 665 W/m 9,4 C 33,4 C 0,7 km/h (0 Bft) 0,00 %
11.08.2015 18:00 32,6 C 24 % 1013,5 hPa 0,0 l/m 0,0 km/h (0 Bft) N 1,00 h 0,000 mm 1,0 UV-I 473 W/m 9,2 C 32,6 C 0,3 km/h (0 Bft) 0,00 %
11.08.2015 19:00 31,0 C 24 % 1013,7 hPa 0,0 l/m 0,0 km/h (0 Bft) N 1,00 h 0,000 mm 0,0 UV-I 162 W/m 8,1 C 31,0 C 0,0 km/h (0 Bft) 0,00 %
11.08.2015 20:00 26,0 C 39 % 1014,1 hPa 0,0 l/m 0,0 km/h (0 Bft) N 0,25 h 0,000 mm 0,0 UV-I 16 W/m 11,0 C 26,0 C 0,0 km/h (0 Bft) 0,00 %
11.08.2015 21:00 23,0 C 46 % 1014,6 hPa 0,0 l/m 0,0 km/h (0 Bft) N 0,00 h 0,000 mm 0,0 UV-I 0 W/m 10,7 C 23,0 C 0,0 km/h (0 Bft) 0,00 %
11.08.2015 22:00 21,7 C 53 % 1015,2 hPa 0,0 l/m 0,0 km/h (0 Bft) N 0,00 h 0,000 mm 0,0 UV-I 0 W/m 11,5 C 21,7 C 0,0 km/h (0 Bft) 0,00 %
11.08.2015 23:00 20,2 C 60 % 1015,8 hPa 0,0 l/m 0,0 km/h (0 Bft) N 0,00 h 0,000 mm 0,0 UV-I 0 W/m 12,2 C 20,2 C 0,0 km/h (0 Bft) 0,00 %
12.08.2015 00:00 19,7 C 62 % 1016,0 hPa 0,0 l/m 0,0 km/h (0 Bft) N 0,00 h 0,000 mm 0,0 UV-I 0 W/m 12,3 C 19,7 C 0,0 km/h (0 Bft) 0,00 %
12.08.2015 01:00 18,9 C 65 % 1015,9 hPa 0,0 l/m 0,0 km/h (0 Bft) N 0,00 h 0,000 mm 0,0 UV-I 0 W/m 12,3 C 18,9 C 0,0 km/h (0 Bft) 0,00 %
12.08.2015 02:00 17,6 C 72 % 1016,0 hPa 0,0 l/m 0,0 km/h (0 Bft) N 0,00 h 0,000 mm 0,0 UV-I 0 W/m 12,5 C 17,6 C 0,0 km/h (0 Bft) 0,00 %
12.08.2015 03:00 16,4 C 76 % 1016,1 hPa 0,0 l/m 0,0 km/h (0 Bft) N 0,00 h 0,000 mm 0,0 UV-I 0 W/m 12,1 C 16,4 C 0,0 km/h (0 Bft) 0,00 %
12.08.2015 04:00 15,5 C 79 % 1016,4 hPa 0,0 l/m 0,0 km/h (0 Bft) N 0,00 h 0,000 mm 0,0 UV-I 0 W/m 11,9 C 15,5 C 0,0 km/h (0 Bft) 0,00 %
12.08.2015 05:00 15,1 C 81 % 1016,9 hPa 0,0 l/m 0,0 km/h (0 Bft) N 0,00 h 0,000 mm 0,0 UV-I 0 W/m 11,8 C 15,1 C 0,0 km/h (0 Bft) 0,00 %
12.08.2015 06:00 15,5 C 80 % 1017,4 hPa 0,0 l/m 0,0 km/h (0 Bft) N 0,58 h 0,000 mm 0,0 UV-I 64 W/m 12,0 C 15,5 C 0,0 km/h (0 Bft) 0,00 %
12.08.2015 07:00 19,2 C 66 % 1017,7 hPa 0,0 l/m 0,0 km/h (0 Bft) N 0,67 h 0,000 mm 1,0 UV-I 158 W/m 12,6 C 19,2 C 0,0 km/h (0 Bft) 0,00 %
12.08.2015 08:00 24,6 C 47 % 1018,2 hPa 0,0 l/m 0,0 km/h (0 Bft) N 1,00 h 0,000 mm 1,0 UV-I 284 W/m 12,5 C 24,6 C 0,3 km/h (0 Bft) 0,00 %
12.08.2015 09:00 27,7 C 41 % 1018,5 hPa 0,0 l/m 0,2 km/h (0 Bft) NW 0,83 h 0,000 mm 1,8 UV-I 410 W/m 13,2 C 27,7 C 0,3 km/h (0 Bft) 0,00 %
12.08.2015 10:00 29,6 C 35 % 1018,7 hPa 0,0 l/m 0,2 km/h (0 Bft) NW 0,83 h 0,000 mm 1,9 UV-I 489 W/m 12,3 C 29,6 C 0,3 km/h (0 Bft) 0,00 %
12.08.2015 11:00 29,3 C 37 % 1018,7 hPa 0,0 l/m 0,0 km/h (0 Bft) N 0,08 h 0,000 mm 1,9 UV-I 389 W/m 13,0 C 29,3 C 0,0 km/h (0 Bft) 0,00 %
12.08.2015 12:00 31,4 C 31 % 1018,4 hPa 0,0 l/m 0,1 km/h (0 Bft) W-NW 1,00 h 0,000 mm 3,7 UV-I 760 W/m 11,9 C 31,4 C 0,3 km/h (0 Bft) 0,00 %
12.08.2015 13:00 32,9 C 30 % 1017,9 hPa 0,0 l/m 1,7 km/h (1 Bft) W 1,00 h 0,000 mm 3,9 UV-I 844 W/m 12,7 C 32,9 C 2,6 km/h (1 Bft) 0,00 %
12.08.2015 14:00 34,5 C 22 % 1017,1 hPa 0,0 l/m 2,0 km/h (1 Bft) W-NW 1,00 h 0,000 mm 3,0 UV-I 873 W/m 9,3 C 34,5 C 4,3 km/h (1 Bft) 0,00 %
12.08.2015 15:00 34,9 C 20 % 1016,5 hPa 0,0 l/m 0,7 km/h (0 Bft) O-NO 1,02 h 0,000 mm 2,5 UV-I 842 W/m 8,7 C 34,9 C 2,7 km/h (1 Bft) 0,00 %
12.08.2015 16:00 35,1 C 20 % 1016,1 hPa 0,0 l/m 1,7 km/h (1 Bft) N-NO 1,00 h 0,000 mm 1,5 UV-I 780 W/m 9,0 C 35,1 C 3,0 km/h (1 Bft) 0,00 %
12.08.2015 17:00 34,6 C 21 % 1015,8 hPa 0,0 l/m 1,0 km/h (0 Bft) O-NO 1,00 h 0,000 mm 1,0 UV-I 647 W/m 9,2 C 34,6 C 2,0 km/h (1 Bft) 0,00 %
12.08.2015 18:00 34,0 C 23 % 1015,6 hPa 0,0 l/m 0,0 km/h (0 Bft) N 1,00 h 0,000 mm 1,0 UV-I 412 W/m 10,0 C 34,0 C 0,0 km/h (0 Bft) 0,00 %
12.08.2015 19:00 33,1 C 27 % 1015,7 hPa 0,0 l/m 0,0 km/h (0 Bft) N 1,00 h 0,000 mm 0,0 UV-I 134 W/m 11,3 C 33,1 C 0,0 km/h (0 Bft) 0,00 %
12.08.2015 20:00 28,0 C 39 % 1016,0 hPa 0,0 l/m 0,0 km/h (0 Bft) N 0,17 h 0,000 mm 0,0 UV-I 11 W/m 12,7 C 28,0 C 0,0 km/h (0 Bft) 0,00 %
12.08.2015 21:00 24,8 C 47 % 1016,7 hPa 0,0 l/m 0,0 km/h (0 Bft) N 0,00 h 0,000 mm 0,0 UV-I 0 W/m 12,7 C 24,8 C 0,0 km/h (0 Bft) 0,00 %
12.08.2015 22:00 23,3 C 52 % 1016,6 hPa 0,0 l/m 0,0 km/h (0 Bft) N 0,00 h 0,000 mm 0,0 UV-I 0 W/m 12,9 C 23,3 C 0,0 km/h (0 Bft) 0,00 %
12.08.2015 23:00 22,5 C 55 % 1016,9 hPa 0,0 l/m 0,0 km/h (0 Bft) N 0,00 h 0,000 mm 0,0 UV-I 0 W/m 12,9 C 22,5 C 0,0 km/h (0 Bft) 0,00 %
13.08.2015 00:00 21,3 C 59 % 1016,9 hPa 0,0 l/m 0,0 km/h (0 Bft) N 0,00 h 0,000 mm 0,0 UV-I 0 W/m 13,0 C 21,3 C 0,0 km/h (0 Bft) 0,00 %
13.08.2015 01:00 20,0 C 64 % 1016,9 hPa 0,0 l/m 0,0 km/h (0 Bft) N 0,00 h 0,000 mm 0,0 UV-I 0 W/m 12,9 C 20,0 C 0,0 km/h (0 Bft) 0,00 %
13.08.2015 02:00 18,9 C 69 % 1016,8 hPa 0,0 l/m 0,0 km/h (0 Bft) N 0,00 h 0,000 mm 0,0 UV-I 0 W/m 13,0 C 18,9 C 0,0 km/h (0 Bft) 0,00 %
13.08.2015 03:00 18,1 C 72 % 1016,5 hPa 0,0 l/m 0,0 km/h (0 Bft) N 0,00 h 0,000 mm 0,0 UV-I 0 W/m 13,0 C 18,1 C 0,0 km/h (0 Bft) 0,00 %
13.08.2015 04:00 17,3 C 76 % 1016,6 hPa 0,0 l/m 0,0 km/h (0 Bft) N 0,00 h 0,000 mm 0,0 UV-I 0 W/m 12,9 C 17,3 C 0,0 km/h (0 Bft) 0,00 %
13.08.2015 05:00 16,6 C 77 % 1016,6 hPa 0,0 l/m 0,0 km/h (0 Bft) N 0,00 h 0,000 mm 0,0 UV-I 0 W/m 12,6 C 16,6 C 0,0 km/h (0 Bft) 0,00 %
13.08.2015 06:00 17,3 C 75 % 1016,7 hPa 0,0 l/m 0,0 km/h (0 Bft) N 0,42 h 0,000 mm 0,0 UV-I 54 W/m 12,9 C 17,3 C 0,0 km/h (0 Bft) 0,00 %
13.08.2015 07:00 21,8 C 59 % 1016,7 hPa 0,0 l/m 0,1 km/h (0 Bft) O 1,00 h 0,000 mm 1,0 UV-I 185 W/m 13,3 C 21,8 C 0,3 km/h (0 Bft) 0,00 %
13.08.2015 08:00 25,3 C 49 % 1016,8 hPa 0,0 l/m 0,4 km/h (0 Bft) O-NO 1,02 h 0,000 mm 1,0 UV-I 285 W/m 13,7 C 25,3 C 1,3 km/h (1 Bft) 0,00 %
13.08.2015 09:00 26,7 C 46 % 1016,6 hPa 0,0 l/m 0,8 km/h (0 Bft) O 1,00 h 0,000 mm 1,7 UV-I 397 W/m 14,0 C 26,6 C 1,3 km/h (1 Bft) 0,00 %
13.08.2015 10:00 28,6 C 42 % 1016,4 hPa 0,0 l/m 4,8 km/h (1 Bft) O-SO 1,00 h 0,000 mm 2,2 UV-I 542 W/m 14,5 C 28,6 C 7,6 km/h (2 Bft) 0,00 %
13.08.2015 11:00 30,6 C 37 % 1015,8 hPa 0,0 l/m 5,7 km/h (1 Bft) O 1,00 h 0,000 mm 3,1 UV-I 703 W/m 14,0 C 30,5 C 9,6 km/h (2 Bft) 0,00 %
13.08.2015 12:00 31,6 C 33 % 1015,0 hPa 0,0 l/m 6,7 km/h (2 Bft) NO 1,00 h 0,000 mm 4,0 UV-I 787 W/m 13,2 C 31,6 C 9,6 km/h (2 Bft) 0,00 %
13.08.2015 13:00 32,6 C 30 % 1014,1 hPa 0,0 l/m 5,5 km/h (1 Bft) O 1,00 h 0,000 mm 4,0 UV-I 844 W/m 12,8 C 32,6 C 10,2 km/h (2 Bft) 0,00 %
13.08.2015 14:00 33,8 C 22 % 1013,0 hPa 0,0 l/m 7,7 km/h (2 Bft) N-NO 1,00 h 0,000 mm 3,1 UV-I 876 W/m 9,1 C 33,8 C 10,9 km/h (2 Bft) 0,00 %
13.08.2015 15:00 34,5 C 21 % 1012,2 hPa 0,0 l/m 5,4 km/h (1 Bft) O-NO 1,00 h 0,000 mm 2,6 UV-I 868 W/m 9,0 C 34,5 C 9,3 km/h (2 Bft) 0,00 %
13.08.2015 16:00 34,3 C 22 % 1011,4 hPa 0,0 l/m 6,3 km/h (2 Bft) O-SO 1,00 h 0,000 mm 1,0 UV-I 793 W/m 9,6 C 34,3 C 9,2 km/h (2 Bft) 0,00 %
13.08.2015 17:00 33,7 C 25 % 1011,0 hPa 0,0 l/m 8,2 km/h (2 Bft) NO 1,00 h 0,000 mm 1,0 UV-I 664 W/m 10,8 C 33,7 C 11,9 km/h (2 Bft) 0,00 %
13.08.2015 18:00 32,9 C 27 % 1010,7 hPa 0,0 l/m 8,5 km/h (2 Bft) O 1,00 h 0,000 mm 1,0 UV-I 457 W/m 11,6 C 32,9 C 13,2 km/h (3 Bft) 0,00 %
13.08.2015 19:00 31,6 C 30 % 1010,5 hPa 0,0 l/m 5,5 km/h (1 Bft) SO 0,92 h 0,000 mm 0,0 UV-I 134 W/m 12,0 C 31,6 C 9,2 km/h (2 Bft) 0,00 %
13.08.2015 20:00 29,3 C 34 % 1010,5 hPa 0,0 l/m 4,3 km/h (1 Bft) O 0,00 h 0,000 mm 0,0 UV-I 5 W/m 11,9 C 29,3 C 6,9 km/h (2 Bft) 0,00 %
13.08.2015 21:00 27,6 C 39 % 1010,2 hPa 0,0 l/m 3,1 km/h (1 Bft) SO 0,00 h 0,000 mm 0,0 UV-I 0 W/m 12,2 C 27,6 C 5,6 km/h (1 Bft) 0,00 %
13.08.2015 22:00 26,2 C 41 % 1010,1 hPa 0,0 l/m 2,5 km/h (1 Bft) O-SO 0,00 h 0,000 mm 0,0 UV-I 0 W/m 11,7 C 26,2 C 4,6 km/h (1 Bft) 0,00 %
13.08.2015 23:00 24,4 C 46 % 1010,1 hPa 0,0 l/m 0,3 km/h (0 Bft) N 0,00 h 0,000 mm 0,0 UV-I 0 W/m 12,1 C 24,4 C 2,0 km/h (1 Bft) 0,00 %
14.08.2015 00:00 22,9 C 51 % 1010,0 hPa 0,0 l/m 0,7 km/h (0 Bft) O 0,00 h 0,000 mm 0,0 UV-I 0 W/m 12,2 C 22,9 C 1,3 km/h (1 Bft) 0,00 %
14.08.2015 01:00 21,6 C 54 % 1010,0 hPa 0,0 l/m 0,0 km/h (0 Bft) N 0,00 h 0,000 mm 0,0 UV-I 0 W/m 11,9 C 21,6 C 0,4 km/h (0 Bft) 0,00 %
14.08.2015 02:00 21,0 C 56 % 1009,6 hPa 0,0 l/m 0,0 km/h (0 Bft) N 0,00 h 0,000 mm 0,0 UV-I 0 W/m 11,8 C 21,0 C 0,3 km/h (0 Bft) 0,00 %
14.08.2015 03:00 20,3 C 60 % 1009,3 hPa 0,0 l/m 0,0 km/h (0 Bft) N 0,00 h 0,000 mm 0,0 UV-I 0 W/m 12,2 C 20,3 C 0,3 km/h (0 Bft) 0,00 %
14.08.2015 04:00 19,4 C 64 % 1009,1 hPa 0,0 l/m 0,0 km/h (0 Bft) N 0,00 h 0,000 mm 0,0 UV-I 0 W/m 12,4 C 19,4 C 0,0 km/h (0 Bft) 0,00 %
14.08.2015 05:00 17,5 C 73 % 1009,2 hPa 0,0 l/m 0,0 km/h (0 Bft) N 0,00 h 0,000 mm 0,0 UV-I 0 W/m 12,6 C 17,5 C 0,0 km/h (0 Bft) 0,00 %
14.08.2015 06:00 17,4 C 72 % 1009,9 hPa 0,0 l/m 0,1 km/h (0 Bft) N 0,75 h 0,000 mm 0,0 UV-I 68 W/m 12,4 C 17,4 C 0,7 km/h (0 Bft) 0,00 %
14.08.2015 07:00 20,7 C 60 % 1010,3 hPa 0,0 l/m 0,7 km/h (0 Bft) SW 1,00 h 0,000 mm 1,0 UV-I 200 W/m 12,5 C 20,7 C 2,7 km/h (1 Bft) 0,00 %
14.08.2015 08:00 24,4 C 51 % 1010,8 hPa 0,0 l/m 1,6 km/h (1 Bft) W-SW 1,00 h 0,000 mm 1,0 UV-I 273 W/m 13,6 C 24,4 C 2,7 km/h (1 Bft) 0,00 %
14.08.2015 09:00 27,7 C 45 % 1010,9 hPa 0,0 l/m 1,8 km/h (1 Bft) N-NW 1,00 h 0,000 mm 1,7 UV-I 393 W/m 14,7 C 27,7 C 3,6 km/h (1 Bft) 0,00 %
14.08.2015 10:00 29,9 C 41 % 1010,8 hPa 0,0 l/m 0,8 km/h (0 Bft) W-NW 1,00 h 0,000 mm 2,2 UV-I 545 W/m 15,0 C 29,9 C 1,7 km/h (1 Bft) 0,00 %
14.08.2015 11:00 32,0 C 37 % 1010,2 hPa 0,0 l/m 0,4 km/h (0 Bft) W-SW 1,00 h 0,000 mm 3,0 UV-I 703 W/m 15,4 C 32,0 C 1,0 km/h (0 Bft) 0,00 %
14.08.2015 12:00 31,9 C 36 % 1009,6 hPa 0,0 l/m 1,2 km/h (1 Bft) W-NW 1,00 h 0,000 mm 4,0 UV-I 796 W/m 14,7 C 31,9 C 2,0 km/h (1 Bft) 0,00 %
14.08.2015 13:00 32,4 C 34 % 1008,8 hPa 0,0 l/m 2,1 km/h (1 Bft) N-NO 1,00 h 0,000 mm 4,0 UV-I 846 W/m 14,3 C 32,3 C 4,6 km/h (1 Bft) 0,00 %
14.08.2015 14:00 33,3 C 31 % 1007,9 hPa 0,0 l/m 2,1 km/h (1 Bft) O 1,00 h 0,000 mm 3,1 UV-I 881 W/m 13,8 C 33,3 C 3,3 km/h (1 Bft) 0,00 %
14.08.2015 15:00 34,0 C 28 % 1006,7 hPa 0,0 l/m 1,3 km/h (1 Bft) O 1,00 h 0,000 mm 2,6 UV-I 861 W/m 12,6 C 34,0 C 3,0 km/h (1 Bft) 0,00 %
14.08.2015 16:00 34,2 C 25 % 1005,5 hPa 0,0 l/m 4,1 km/h (1 Bft) O 1,00 h 0,000 mm 1,1 UV-I 791 W/m 11,0 C 34,2 C 6,9 km/h (2 Bft) 0,00 %
14.08.2015 17:00 34,1 C 23 % 1004,6 hPa 0,0 l/m 2,2 km/h (1 Bft) O 1,02 h 0,000 mm 1,0 UV-I 657 W/m 10,2 C 34,1 C 4,6 km/h (1 Bft) 0,00 %
14.08.2015 18:00 33,8 C 22 % 1004,0 hPa 0,0 l/m 3,2 km/h (1 Bft) O-SO 1,00 h 0,000 mm 1,0 UV-I 441 W/m 9,0 C 33,8 C 5,0 km/h (1 Bft) 0,00 %
14.08.2015 19:00 31,6 C 24 % 1004,1 hPa 0,0 l/m 0,4 km/h (0 Bft) O-SO 0,25 h 0,000 mm 0,0 UV-I 60 W/m 8,4 C 31,6 C 0,7 km/h (0 Bft) 0,00 %
14.08.2015 20:00 28,6 C 32 % 1004,1 hPa 0,0 l/m 0,0 km/h (0 Bft) N 0,00 h 0,000 mm 0,0 UV-I 1 W/m 10,3 C 28,6 C 0,0 km/h (0 Bft) 0,00 %
14.08.2015 21:00 26,9 C 36 % 1004,8 hPa 0,0 l/m 0,3 km/h (0 Bft) NW 0,00 h 0,000 mm 0,0 UV-I 0 W/m 10,4 C 26,9 C 0,7 km/h (0 Bft) 0,00 %
14.08.2015 22:00 25,5 C 47 % 1006,4 hPa 0,0 l/m 0,6 km/h (0 Bft) W-NW 0,00 h 0,000 mm 0,0 UV-I 0 W/m 13,2 C 25,5 C 1,7 km/h (1 Bft) 0,00 %
14.08.2015 23:00 22,5 C 60 % 1007,2 hPa 0,0 l/m 0,6 km/h (0 Bft) N-NO 0,00 h 0,000 mm 0,0 UV-I 0 W/m 14,3 C 22,5 C 1,7 km/h (1 Bft) 0,00 %
15.08.2015 00:00 21,3 C 64 % 1007,6 hPa 0,0 l/m 1,1 km/h (1 Bft) NW 0,00 h 0,000 mm 0,0 UV-I 0 W/m 14,2 C 21,3 C 3,0 km/h (1 Bft) 0,00 %
15.08.2015 01:00 20,1 C 73 % 1008,0 hPa 0,0 l/m 1,1 km/h (0 Bft) NW 0,00 h 0,000 mm 0,0 UV-I 0 W/m 15,0 C 20,1 C 2,3 km/h (1 Bft) 0,00 %
15.08.2015 02:00 19,6 C 80 % 1008,3 hPa 0,0 l/m 3,4 km/h (1 Bft) W-NW 0,00 h 0,000 mm 0,0 UV-I 0 W/m 16,1 C 19,6 C 5,0 km/h (1 Bft) 0,00 %
15.08.2015 03:00 19,0 C 82 % 1008,4 hPa 0,0 l/m 3,0 km/h (1 Bft) W-NW 0,00 h 0,000 mm 0,0 UV-I 0 W/m 15,9 C 18,9 C 5,6 km/h (1 Bft) 0,00 %
15.08.2015 04:00 18,7 C 82 % 1008,9 hPa 0,0 l/m 1,4 km/h (1 Bft) O 0,00 h 0,000 mm 0,0 UV-I 0 W/m 15,6 C 18,7 C 2,3 km/h (1 Bft) 0,00 %
15.08.2015 05:00 18,0 C 84 % 1009,4 hPa 0,0 l/m 0,0 km/h (0 Bft) N 0,00 h 0,000 mm 0,0 UV-I 0 W/m 15,3 C 18,0 C 0,3 km/h (0 Bft) 0,00 %
15.08.2015 06:00 17,5 C 86 % 1009,5 hPa 0,0 l/m 0,0 km/h (0 Bft) N 0,42 h 0,000 mm 0,0 UV-I 47 W/m 15,1 C 17,5 C 0,0 km/h (0 Bft) 0,00 %
15.08.2015 07:00 19,4 C 78 % 1009,8 hPa 0,0 l/m 0,0 km/h (0 Bft) N 0,00 h 0,000 mm 0,0 UV-I 43 W/m 15,5 C 19,4 C 0,0 km/h (0 Bft) 0,00 %
15.08.2015 08:00 18,9 C 85 % 1009,7 hPa 0,3 l/m 0,0 km/h (0 Bft) N 0,00 h 0,000 mm 1,0 UV-I 104 W/m 16,3 C 18,9 C 0,0 km/h (0 Bft) 0,00 %
15.08.2015 09:00 20,0 C 82 % 1009,1 hPa 0,0 l/m 0,0 km/h (0 Bft) O 0,00 h 0,000 mm 1,0 UV-I 189 W/m 16,8 C 20,0 C 0,3 km/h (0 Bft) 0,00 %
15.08.2015 10:00 21,7 C 73 % 1009,4 hPa 0,0 l/m 0,8 km/h (0 Bft) O-SO 0,33 h 0,000 mm 1,6 UV-I 378 W/m 16,7 C 21,7 C 2,3 km/h (1 Bft) 0,00 %
15.08.2015 11:00 24,4 C 61 % 1009,4 hPa 0,0 l/m 1,6 km/h (1 Bft) NW 0,58 h 0,000 mm 2,3 UV-I 493 W/m 16,4 C 24,4 C 3,0 km/h (1 Bft) 0,00 %
15.08.2015 12:00 26,0 C 51 % 1009,2 hPa 0,0 l/m 0,3 km/h (0 Bft) NW 0,92 h 0,000 mm 3,0 UV-I 641 W/m 15,1 C 26,0 C 0,7 km/h (0 Bft) 0,00 %
15.08.2015 13:00 27,7 C 43 % 1008,6 hPa 0,0 l/m 0,7 km/h (0 Bft) N-NO 1,00 h 0,000 mm 4,0 UV-I 855 W/m 14,1 C 27,7 C 1,7 km/h (1 Bft) 0,00 %
15.08.2015 14:00 28,2 C 42 % 1007,9 hPa 0,0 l/m 0,7 km/h (0 Bft) N-NO 1,00 h 0,000 mm 3,5 UV-I 885 W/m 13,9 C 28,2 C 1,7 km/h (1 Bft) 0,00 %
15.08.2015 15:00 29,8 C 34 % 1007,0 hPa 0,0 l/m 0,9 km/h (0 Bft) O-NO 1,00 h 0,000 mm 2,6 UV-I 888 W/m 12,3 C 29,8 C 2,6 km/h (1 Bft) 0,00 %
15.08.2015 16:00 30,3 C 32 % 1006,4 hPa 0,0 l/m 0,5 km/h (0 Bft) W 1,00 h 0,000 mm 1,0 UV-I 837 W/m 11,5 C 30,3 C 1,3 km/h (1 Bft) 0,00 %
15.08.2015 17:00 30,4 C 31 % 1005,9 hPa 0,0 l/m 0,6 km/h (0 Bft) NW 1,00 h 0,000 mm 1,0 UV-I 765 W/m 11,5 C 30,4 C 2,0 km/h (1 Bft) 0,00 %
15.08.2015 18:00 30,7 C 32 % 1005,8 hPa 0,0 l/m 0,3 km/h (0 Bft) N-NW 1,00 h 0,000 mm 1,0 UV-I 511 W/m 11,9 C 30,7 C 0,3 km/h (0 Bft) 0,00 %
15.08.2015 19:00 28,5 C 40 % 1006,0 hPa 0,0 l/m 0,3 km/h (0 Bft) N-NW 1,00 h 0,000 mm 0,0 UV-I 154 W/m 13,7 C 28,5 C 1,0 km/h (0 Bft) 0,00 %
15.08.2015 20:00 24,8 C 50 % 1006,7 hPa 0,0 l/m 0,2 km/h (0 Bft) NO 0,17 h 0,000 mm 0,0 UV-I 5 W/m 13,7 C 24,8 C 0,3 km/h (0 Bft) 0,00 %
15.08.2015 21:00 23,1 C 59 % 1007,5 hPa 0,0 l/m 0,2 km/h (0 Bft) W-SW 0,00 h 0,000 mm 0,0 UV-I 0 W/m 14,6 C 23,1 C 0,7 km/h (0 Bft) 0,00 %
15.08.2015 22:00 21,7 C 67 % 1007,4 hPa 0,0 l/m 1,2 km/h (1 Bft) N-NW 0,00 h 0,000 mm 0,0 UV-I 0 W/m 15,3 C 21,6 C 2,6 km/h (1 Bft) 0,00 %
15.08.2015 23:00 20,0 C 74 % 1007,8 hPa 0,0 l/m 0,4 km/h (0 Bft) W-NW 0,00 h 0,000 mm 0,0 UV-I 0 W/m 15,2 C 20,0 C 1,3 km/h (1 Bft) 0,00 %
16.08.2015 00:00 19,4 C 77 % 1008,9 hPa 0,0 l/m 4,0 km/h (1 Bft) W-SW 0,00 h 0,000 mm 0,0 UV-I 0 W/m 15,3 C 18,9 C 6,9 km/h (2 Bft) 0,00 %
16.08.2015 01:00 18,7 C 80 % 1009,0 hPa 0,0 l/m 4,6 km/h (1 Bft) W-SW 0,00 h 0,000 mm 0,0 UV-I 0 W/m 15,1 C 18,1 C 6,9 km/h (2 Bft) 0,00 %
16.08.2015 02:00 18,5 C 81 % 1009,1 hPa 0,0 l/m 0,5 km/h (0 Bft) NO 0,00 h 0,000 mm 0,0 UV-I 0 W/m 15,1 C 18,5 C 2,0 km/h (1 Bft) 0,00 %
16.08.2015 03:00 18,2 C 80 % 1008,9 hPa 0,0 l/m 1,8 km/h (1 Bft) W-SW 0,00 h 0,000 mm 0,0 UV-I 0 W/m 14,7 C 18,1 C 3,6 km/h (1 Bft) 0,00 %
16.08.2015 04:00 17,8 C 82 % 1008,8 hPa 0,0 l/m 1,7 km/h (1 Bft) N-NW 0,00 h 0,000 mm 0,0 UV-I 0 W/m 14,6 C 17,7 C 3,0 km/h (1 Bft) 0,00 %
16.08.2015 05:00 17,4 C 82 % 1008,7 hPa 0,0 l/m 1,2 km/h (1 Bft) W-SW 0,00 h 0,000 mm 0,0 UV-I 0 W/m 14,3 C 17,4 C 3,0 km/h (1 Bft) 0,00 %
16.08.2015 06:00 17,1 C 84 % 1008,9 hPa 0,0 l/m 0,6 km/h (0 Bft) W-NW 0,00 h 0,000 mm 0,0 UV-I 19 W/m 14,4 C 17,1 C 3,0 km/h (1 Bft) 0,00 %
16.08.2015 07:00 17,6 C 82 % 1008,9 hPa 0,0 l/m 1,3 km/h (1 Bft) W-SW 0,00 h 0,000 mm 1,0 UV-I 80 W/m 14,5 C 17,6 C 2,3 km/h (1 Bft) 0,00 %
16.08.2015 08:00 17,6 C 82 % 1009,0 hPa 0,0 l/m 1,0 km/h (0 Bft) W-SW 0,00 h 0,000 mm 0,0 UV-I 58 W/m 14,5 C 17,6 C 3,0 km/h (1 Bft) 0,00 %
16.08.2015 09:00 18,1 C 80 % 1008,8 hPa 0,0 l/m 0,4 km/h (0 Bft) W-SW 0,00 h 0,000 mm 1,0 UV-I 89 W/m 14,5 C 18,1 C 1,7 km/h (1 Bft) 0,00 %
16.08.2015 10:00 18,3 C 79 % 1009,2 hPa 0,3 l/m 0,5 km/h (0 Bft) N 0,00 h 0,000 mm 1,0 UV-I 89 W/m 14,6 C 18,3 C 1,3 km/h (1 Bft) 0,00 %
16.08.2015 11:00 17,9 C 89 % 1009,4 hPa 0,6 l/m 0,1 km/h (0 Bft) N 0,00 h 0,000 mm 1,0 UV-I 155 W/m 16,1 C 17,9 C 1,0 km/h (0 Bft) 0,00 %
16.08.2015 12:00 18,1 C 88 % 1009,2 hPa 0,0 l/m 0,2 km/h (0 Bft) W-NW 0,00 h 0,000 mm 1,0 UV-I 179 W/m 16,1 C 18,1 C 1,0 km/h (0 Bft) 0,00 %
16.08.2015 13:00 19,5 C 81 % 1009,4 hPa 0,0 l/m 0,8 km/h (0 Bft) W-SW 0,00 h 0,000 mm 1,5 UV-I 324 W/m 16,0 C 19,5 C 2,3 km/h (1 Bft) 0,00 %
16.08.2015 14:00 21,0 C 70 % 1009,5 hPa 0,0 l/m 2,9 km/h (1 Bft) W-SW 0,58 h 0,000 mm 1,9 UV-I 426 W/m 15,3 C 21,0 C 5,3 km/h (1 Bft) 0,00 %
16.08.2015 15:00 22,2 C 64 % 1009,1 hPa 0,0 l/m 2,4 km/h (1 Bft) NW 0,75 h 0,000 mm 2,2 UV-I 588 W/m 15,0 C 22,2 C 4,6 km/h (1 Bft) 0,00 %
16.08.2015 16:00 21,3 C 66 % 1008,8 hPa 0,0 l/m 2,1 km/h (1 Bft) W-SW 0,08 h 0,000 mm 1,1 UV-I 241 W/m 14,8 C 21,3 C 4,0 km/h (1 Bft) 0,00 %
16.08.2015 17:00 20,3 C 69 % 1009,2 hPa 0,0 l/m 0,3 km/h (0 Bft) W-NW 0,00 h 0,000 mm 1,0 UV-I 123 W/m 14,5 C 20,3 C 1,7 km/h (1 Bft) 0,00 %
16.08.2015 18:00 19,8 C 70 % 1009,0 hPa 0,0 l/m 0,8 km/h (0 Bft) W-SW 0,08 h 0,000 mm 1,0 UV-I 111 W/m 14,3 C 19,8 C 2,3 km/h (1 Bft) 0,00 %
16.08.2015 19:00 18,9 C 74 % 1009,3 hPa 0,0 l/m 0,2 km/h (0 Bft) W 0,33 h 0,000 mm 0,0 UV-I 46 W/m 14,1 C 18,9 C 1,0 km/h (0 Bft) 0,00 %
16.08.2015 20:00 17,9 C 79 % 1009,6 hPa 0,0 l/m 0,0 km/h (0 Bft) N 0,08 h 0,000 mm 0,0 UV-I 5 W/m 14,1 C 17,9 C 0,3 km/h (0 Bft) 0,00 %
16.08.2015 21:00 17,1 C 83 % 1010,1 hPa 0,0 l/m 0,0 km/h (0 Bft) N 0,00 h 0,000 mm 0,0 UV-I 0 W/m 14,1 C 17,1 C 0,0 km/h (0 Bft) 0,00 %
16.08.2015 22:00 16,9 C 83 % 1010,0 hPa 0,0 l/m 0,9 km/h (0 Bft) W-SW 0,00 h 0,000 mm 0,0 UV-I 0 W/m 14,0 C 16,9 C 2,3 km/h (1 Bft) 0,00 %
16.08.2015 23:00 16,7 C 83 % 1009,9 hPa 0,0 l/m 1,1 km/h (0 Bft) W-SW 0,00 h 0,000 mm 0,0 UV-I 0 W/m 13,8 C 16,7 C 3,3 km/h (1 Bft) 0,00 %
Min-Datum _ 12.08.15 10.08.15 14.08.15 - 10.08.15 - - - - - 10.08.15 12.08.15 10.08.15 10.08.15
_ Min-Zeit 06:12 15:27 20:06 - 00:01 - - - - - 15:57 06:12 00:01 00:01
Minimum _ 14,7 C 13 % 1003,8 hPa - 0,0 km/h (0 Bft) - - - - - 0,9 C 14,7 C 0,0 km/h (0 Bft) 0,00 %
Max-Datum _ 12.08.15 16.08.15 12.08.15 16.08.15 13.08.15 - 10.08.15 10.08.15 10.08.15 16.08.15 15.08.15 12.08.15 13.08.15 10.08.15
_ Max-Zeit 16:18 11:48 10:42 11:18 12:04 - 13:37 00:01 12:46 15:28 08:56 16:18 12:04 00:01
Maximum _ 35,6 C 92 % 1018,8 hPa 0,6 l/m 15,8 km/h
NO (3 Bft)
- 0,10 h 0,000 mm 5,0 UV-I 1010 W/m 17,2 C 35,6 C 24,1 km/h
NO (4 Bft)
0,00 %
Durchschnitt _ 24,7 C 52 % 1011,9 hPa #1,2 l/m 1,2 km/h (1 Bft) O #77:14 h #0,000 mm 2,0 UV-I 446 W/m 12,6 C 24,7 C 2,3 km/h (1 Bft) 0,00 %